Time;durP1;ratioP1;P1;durP2;ratioP2;P2;SDS_P1;SDS_P2;PMS_P1;PMS_P2;Temp;Humidity;BMP_temperature;BMP_pressure;BME280_temperature;BME280_humidity;BME280_pressure;Samples;Min_cycle;Max_cycle;Signal;HPM_P1;HPM_P2
2021/11/28 00:01:41;;;;;;;1.43;1.43;;;1.00;98.00;;;;;;5012568;28;20458;-63
2021/11/28 00:04:08;;;;;;;1.20;1.20;;;1.00;98.00;;;;;;5012622;28;20462;-63
2021/11/28 00:06:39;;;;;;;1.60;1.50;;;1.10;98.00;;;;;;5012583;28;20494;-63
2021/11/28 00:12:11;;;;;;;1.53;1.53;;;1.30;98.00;;;;;;4988079;28;20509;-63
2021/11/28 00:14:40;;;;;;;2.03;1.77;;;1.10;98.00;;;;;;5012509;28;20985;-63
2021/11/28 00:17:09;;;;;;;1.30;1.10;;;1.10;98.00;;;;;;5012562;28;20458;-62
2021/11/28 00:19:37;;;;;;;1.20;1.20;;;1.20;98.00;;;;;;5012530;28;20471;-63
2021/11/28 00:22:04;;;;;;;2.10;1.73;;;1.30;98.00;;;;;;5012232;28;20509;-63
2021/11/28 00:24:32;;;;;;;1.73;1.63;;;1.40;98.00;;;;;;5012480;28;20516;-63
2021/11/28 00:27:00;;;;;;;1.40;1.20;;;1.40;98.00;;;;;;5011160;28;20578;-63
2021/11/28 00:29:28;;;;;;;1.30;1.23;;;1.40;98.00;;;;;;5012376;28;20455;-63
2021/11/28 00:31:57;;;;;;;1.53;1.43;;;1.40;98.00;;;;;;5012278;28;20466;-62
2021/11/28 00:34:25;;;;;;;1.90;1.33;;;1.40;98.00;;;;;;5012550;28;20467;-62
2021/11/28 00:36:52;;;;;;;1.70;1.40;;;1.60;98.00;;;;;;5012900;28;20522;-63
2021/11/28 00:39:19;;;;;;;1.93;1.50;;;1.60;98.00;;;;;;5012200;28;20460;-62
2021/11/28 00:41:46;;;;;;;1.13;1.10;;;1.50;98.00;;;;;;5012377;28;20943;-63
2021/11/28 00:44:13;;;;;;;2.17;1.30;;;1.60;98.00;;;;;;5012093;28;20529;-63
2021/11/28 00:46:41;;;;;;;2.70;1.97;;;1.60;98.00;;;;;;5010888;28;20544;-63
2021/11/28 00:49:15;;;;;;;1.97;1.83;;;1.70;98.00;;;;;;5012024;28;20469;-63
2021/11/28 00:51:50;;;;;;;1.30;1.20;;;1.70;98.00;;;;;;5012062;28;20867;-62
2021/11/28 00:54:19;;;;;;;10.97;1.50;;;1.60;98.00;;;;;;5011859;28;20482;-63
2021/11/28 00:56:47;;;;;;;1.50;1.30;;;1.70;98.00;;;;;;5012316;28;20456;-63
2021/11/28 00:59:14;;;;;;;1.93;1.83;;;1.70;98.00;;;;;;5011843;28;20521;-63
2021/11/28 01:01:41;;;;;;;1.60;1.60;;;1.70;98.00;;;;;;5011842;28;20497;-63
2021/11/28 01:04:10;;;;;;;1.37;1.20;;;1.60;98.00;;;;;;5011809;28;20498;-63
2021/11/28 01:06:37;;;;;;;1.93;1.20;;;1.50;98.00;;;;;;5012070;28;20526;-63
2021/11/28 01:09:06;;;;;;;6.30;2.43;;;1.30;98.00;;;;;;5011091;28;20887;-63
2021/11/28 01:11:34;;;;;;;2.23;1.73;;;1.30;98.00;;;;;;5011147;28;20528;-63
2021/11/28 01:14:01;;;;;;;2.90;1.50;;;1.40;98.00;;;;;;5010953;28;20616;-63
2021/11/28 01:16:29;;;;;;;17.53;1.50;;;1.50;98.00;;;;;;5011905;28;20466;-63
2021/11/28 01:18:56;;;;;;;1.40;1.33;;;1.50;98.00;;;;;;5010606;28;20952;-63
2021/11/28 01:21:25;;;;;;;3.00;1.87;;;1.70;98.00;;;;;;5011708;28;20462;-63
2021/11/28 01:23:55;;;;;;;1.20;1.20;;;1.80;98.00;;;;;;5011857;28;20475;-63
2021/11/28 01:26:23;;;;;;;5.23;1.70;;;1.80;98.00;;;;;;5011532;28;21059;-63
2021/11/28 01:28:51;;;;;;;1.80;1.70;;;2.00;98.00;;;;;;5011599;28;20455;-63
2021/11/28 01:31:18;;;;;;;1.50;1.50;;;2.00;98.00;;;;;;5011681;28;20459;-63
2021/11/28 01:33:46;;;;;;;1.60;1.53;;;1.90;98.00;;;;;;5011607;28;20536;-63
2021/11/28 01:36:13;;;;;;;1.70;1.27;;;1.70;98.00;;;;;;5011727;28;20517;-62
2021/11/28 01:38:41;;;;;;;2.10;1.93;;;1.70;98.00;;;;;;5011788;28;20894;-63
2021/11/28 01:41:08;;;;;;;1.20;1.20;;;1.80;98.00;;;;;;5015078;28;20459;-63
2021/11/28 01:43:35;;;;;;;1.83;1.30;;;1.80;98.00;;;;;;5015349;28;20945;-63
2021/11/28 01:46:04;;;;;;;1.10;1.00;;;1.70;98.00;;;;;;5015101;28;20491;-63
2021/11/28 01:48:31;;;;;;;1.40;1.30;;;1.70;98.00;;;;;;5015511;28;20517;-63
2021/11/28 01:51:02;;;;;;;1.10;1.00;;;1.60;98.00;;;;;;5015301;28;20885;-63
2021/11/28 01:53:30;;;;;;;2.17;1.40;;;1.70;98.00;;;;;;5013946;28;20458;-63
2021/11/28 01:56:00;;;;;;;2.93;2.27;;;1.80;98.00;;;;;;5014495;28;20930;-63
2021/11/28 01:58:28;;;;;;;1.60;1.40;;;1.90;98.00;;;;;;5014120;28;20550;-63
2021/11/28 02:00:57;;;;;;;1.50;1.40;;;2.00;98.00;;;;;;5014877;28;20931;-63
2021/11/28 02:03:24;;;;;;;1.63;1.30;;;1.90;98.00;;;;;;5015097;28;20478;-63
2021/11/28 02:05:54;;;;;;;2.00;1.83;;;1.80;98.00;;;;;;5014764;28;20490;-63
2021/11/28 02:08:22;;;;;;;1.30;1.20;;;1.80;98.00;;;;;;5014814;28;20458;-63
2021/11/28 02:10:49;;;;;;;1.90;1.53;;;1.90;98.00;;;;;;5014784;28;20953;-63
2021/11/28 02:13:19;;;;;;;1.83;1.73;;;2.00;98.00;;;;;;5014324;28;20986;-63
2021/11/28 02:15:46;;;;;;;2.17;1.33;;;1.80;98.00;;;;;;5014669;28;20506;-63
2021/11/28 02:18:14;;;;;;;8.23;1.77;;;1.70;98.00;;;;;;5014467;28;20467;-63
2021/11/28 02:20:45;;;;;;;1.10;1.10;;;1.70;98.00;;;;;;5014617;28;21255;-63
2021/11/28 02:23:16;;;;;;;1.50;1.43;;;1.70;98.00;;;;;;5014726;28;20953;-63
2021/11/28 02:25:43;;;;;;;2.80;2.00;;;1.60;98.00;;;;;;5014653;28;20486;-63
2021/11/28 02:28:11;;;;;;;2.53;2.37;;;1.40;98.00;;;;;;5014348;28;20462;-63
2021/11/28 02:30:38;;;;;;;1.20;1.20;;;1.40;98.00;;;;;;5014418;28;20458;-63
2021/11/28 02:33:06;;;;;;;1.63;1.53;;;1.50;98.00;;;;;;5014153;28;20459;-63
2021/11/28 02:35:34;;;;;;;1.77;1.27;;;1.50;98.00;;;;;;5014262;28;20463;-63
2021/11/28 02:38:07;;;;;;;1.83;1.67;;;1.40;98.00;;;;;;5014240;28;20528;-62
2021/11/28 02:40:35;;;;;;;1.67;1.53;;;1.40;98.00;;;;;;5014178;28;20452;-63
2021/11/28 02:43:03;;;;;;;1.27;1.27;;;1.50;98.00;;;;;;5014127;28;21243;-63
2021/11/28 02:45:31;;;;;;;1.77;1.40;;;1.60;98.00;;;;;;5013990;28;20520;-63
2021/11/28 02:48:00;;;;;;;2.00;1.90;;;1.70;98.00;;;;;;5014407;28;20467;-63
2021/11/28 02:50:27;;;;;;;2.20;1.50;;;1.70;98.00;;;;;;5012961;28;20459;-62
2021/11/28 02:52:56;;;;;;;2.03;1.40;;;1.70;98.00;;;;;;5013957;28;20466;-63
2021/11/28 02:55:26;;;;;;;1.10;1.10;;;1.70;98.00;;;;;;5014139;28;20455;-63
2021/11/28 02:57:54;;;;;;;1.60;1.30;;;1.70;98.00;;;;;;5014084;28;20460;-63
2021/11/28 03:00:22;;;;;;;1.60;1.43;;;1.50;98.00;;;;;;5013986;28;20529;-63
2021/11/28 03:02:50;;;;;;;2.20;1.73;;;1.40;98.00;;;;;;5013948;28;20533;-63
2021/11/28 03:05:17;;;;;;;2.30;1.97;;;1.40;98.00;;;;;;5014012;28;20510;-63
2021/11/28 03:07:47;;;;;;;2.80;2.17;;;1.40;98.00;;;;;;5013907;28;20560;-63
2021/11/28 03:10:32;;;;;;;1.60;1.50;;;1.40;98.00;;;;;;5013417;28;20471;-63
2021/11/28 03:13:01;;;;;;;1.97;1.37;;;1.50;98.00;;;;;;5012672;28;20870;-63
2021/11/28 03:15:28;;;;;;;1.97;1.63;;;1.70;98.00;;;;;;5013771;28;20466;-63
2021/11/28 03:17:55;;;;;;;1.87;1.33;;;1.70;98.00;;;;;;5013901;28;21003;-63
2021/11/28 03:20:22;;;;;;;1.50;1.43;;;1.80;98.00;;;;;;5013660;28;20474;-63
2021/11/28 03:22:53;;;;;;;1.63;1.40;;;1.80;98.00;;;;;;5013142;28;20463;-62
2021/11/28 03:25:23;;;;;;;2.17;1.30;;;1.80;98.00;;;;;;5013635;28;20894;-63
2021/11/28 03:27:52;;;;;;;1.47;1.17;;;1.80;98.00;;;;;;5013420;28;20494;-62
2021/11/28 03:30:21;;;;;;;1.20;1.20;;;2.00;98.00;;;;;;5013152;28;20514;-63
2021/11/28 03:32:48;;;;;;;2.23;1.77;;;1.90;98.00;;;;;;5013382;28;20525;-63
2021/11/28 03:35:16;;;;;;;1.80;1.23;;;1.90;98.00;;;;;;5011814;28;20458;-63
2021/11/28 03:37:44;;;;;;;4.10;2.50;;;1.90;98.00;;;;;;5013064;28;20521;-62
2021/11/28 03:40:13;;;;;;;1.10;0.97;;;1.90;98.00;;;;;;5013003;28;20811;-63
2021/11/28 03:42:40;;;;;;;2.50;2.20;;;1.90;98.00;;;;;;5013016;28;20886;-63
2021/11/28 03:45:14;;;;;;;1.27;1.23;;;1.90;98.00;;;;;;5012930;28;20594;-62
2021/11/28 03:47:41;;;;;;;1.43;1.37;;;2.00;98.00;;;;;;5012875;28;20864;-63
2021/11/28 03:50:09;;;;;;;1.50;1.30;;;2.10;98.00;;;;;;5012841;28;20482;-63
2021/11/28 03:52:37;;;;;;;1.13;1.00;;;1.90;98.00;;;;;;5012721;28;20517;-63
2021/11/28 03:55:05;;;;;;;1.40;1.30;;;2.00;98.00;;;;;;5012796;28;20482;-63
2021/11/28 03:57:32;;;;;;;1.40;1.40;;;2.10;98.00;;;;;;5012941;28;20875;-63
2021/11/28 04:00:00;;;;;;;1.27;1.23;;;2.00;98.00;;;;;;5012834;28;20466;-63
2021/11/28 04:02:28;;;;;;;1.20;1.10;;;2.00;98.00;;;;;;5012295;28;20971;-63
2021/11/28 04:04:58;;;;;;;1.80;1.80;;;2.00;98.00;;;;;;5012568;28;20934;-63
2021/11/28 04:07:27;;;;;;;1.10;1.00;;;1.90;98.00;;;;;;5012575;28;20499;-63
2021/11/28 04:09:54;;;;;;;1.13;1.10;;;1.90;98.00;;;;;;5011409;28;20460;-63
2021/11/28 04:12:21;;;;;;;1.20;1.10;;;1.90;98.00;;;;;;5012566;28;20471;-63
2021/11/28 04:14:48;;;;;;;1.30;1.20;;;2.00;98.00;;;;;;5012494;28;20463;-63
2021/11/28 04:17:17;;;;;;;1.77;1.67;;;2.00;98.00;;;;;;5012645;28;20946;-63
2021/11/28 04:19:46;;;;;;;1.57;1.50;;;2.00;98.00;;;;;;5012318;28;20455;-63
2021/11/28 04:22:14;;;;;;;1.20;1.10;;;1.90;98.00;;;;;;5012715;28;20522;-63
2021/11/28 04:24:41;;;;;;;2.90;1.57;;;1.90;98.00;;;;;;5012392;28;20460;-63
2021/11/28 04:27:08;;;;;;;1.20;1.10;;;1.80;98.00;;;;;;5012392;28;20516;-63
2021/11/28 04:29:35;;;;;;;1.20;1.10;;;1.60;98.00;;;;;;5012244;28;20525;-63
2021/11/28 04:32:04;;;;;;;1.87;1.77;;;1.50;98.00;;;;;;5012380;28;20857;-63
2021/11/28 04:34:32;;;;;;;2.13;1.73;;;1.60;98.00;;;;;;5012283;28;20462;-63
2021/11/28 04:37:00;;;;;;;1.10;1.00;;;1.70;98.00;;;;;;5012260;28;20463;-63
2021/11/28 04:39:31;;;;;;;1.20;1.10;;;1.70;98.00;;;;;;5012308;28;20538;-63
2021/11/28 04:41:58;;;;;;;1.73;1.43;;;1.70;98.00;;;;;;5012718;28;20470;-63
2021/11/28 04:44:25;;;;;;;1.10;1.07;;;1.80;98.00;;;;;;5012190;28;20459;-62
2021/11/28 04:46:53;;;;;;;1.57;1.53;;;2.00;98.00;;;;;;5012389;28;20640;-63
2021/11/28 04:49:20;;;;;;;1.60;1.50;;;2.10;98.00;;;;;;5011849;28;20866;-63
2021/11/28 04:51:47;;;;;;;1.40;1.40;;;2.10;98.00;;;;;;5011973;28;20455;-63
2021/11/28 04:54:16;;;;;;;1.40;1.20;;;2.10;98.00;;;;;;5011883;28;20466;-63
2021/11/28 04:56:43;;;;;;;1.40;1.27;;;2.10;98.00;;;;;;5011957;28;20835;-63
2021/11/28 04:59:11;;;;;;;1.27;1.13;;;2.00;98.00;;;;;;5011669;28;20519;-63
2021/11/28 05:01:38;;;;;;;1.20;1.10;;;1.90;98.00;;;;;;5011761;28;20941;-63
2021/11/28 05:04:05;;;;;;;1.90;1.43;;;2.00;98.00;;;;;;5011907;28;20467;-63
2021/11/28 05:06:33;;;;;;;1.20;1.20;;;2.10;98.00;;;;;;5011799;28;20486;-62
2021/11/28 05:09:00;;;;;;;1.13;1.10;;;2.10;98.00;;;;;;5011735;28;20459;-63
2021/11/28 05:11:28;;;;;;;2.50;1.70;;;2.10;98.00;;;;;;5011818;28;20463;-63
2021/11/28 05:13:55;;;;;;;1.97;1.40;;;2.10;98.00;;;;;;5012616;28;20945;-63
2021/11/28 05:16:22;;;;;;;2.50;1.83;;;2.20;98.00;;;;;;5015790;28;20813;-62
2021/11/28 05:18:49;;;;;;;1.10;1.00;;;2.10;98.00;;;;;;5015752;28;20925;-63
2021/11/28 05:21:17;;;;;;;1.30;1.27;;;2.00;98.00;;;;;;5015858;28;20521;-63
2021/11/28 05:23:44;;;;;;;3.63;3.03;;;2.10;98.00;;;;;;5015685;28;20466;-63
2021/11/28 05:26:11;;;;;;;2.27;1.63;;;2.00;98.00;;;;;;5015746;28;20914;-63
2021/11/28 05:28:40;;;;;;;1.20;1.10;;;2.00;98.00;;;;;;5015783;28;20467;-63
2021/11/28 05:31:07;;;;;;;1.10;1.10;;;1.90;98.00;;;;;;5015497;28;20461;-63
2021/11/28 05:33:34;;;;;;;1.93;1.67;;;1.90;98.00;;;;;;5015609;28;21144;-62
2021/11/28 05:36:01;;;;;;;1.40;1.27;;;1.80;98.00;;;;;;5015602;28;20526;-63
2021/11/28 05:38:28;;;;;;;2.07;1.93;;;1.80;98.00;;;;;;5015587;28;20463;-64
2021/11/28 05:40:55;;;;;;;1.40;1.30;;;1.80;98.00;;;;;;5015315;28;20500;-63
2021/11/28 05:43:22;;;;;;;1.50;1.27;;;1.90;98.00;;;;;;5015615;28;20537;-63
2021/11/28 05:45:51;;;;;;;1.10;1.00;;;1.90;98.00;;;;;;5015590;28;20475;-63
2021/11/28 05:48:18;;;;;;;1.53;1.33;;;1.90;98.00;;;;;;5015208;28;20490;-62
2021/11/28 05:50:45;;;;;;;1.40;1.30;;;2.00;98.00;;;;;;5015157;28;20462;-62
2021/11/28 05:53:15;;;;;;;1.27;1.10;;;2.10;98.00;;;;;;5015256;28;20501;-63
2021/11/28 05:55:42;;;;;;;1.77;1.60;;;2.00;98.00;;;;;;5014311;28;20455;-63
2021/11/28 05:58:09;;;;;;;1.77;1.60;;;1.90;98.00;;;;;;5015224;28;20462;-62
2021/11/28 06:00:38;;;;;;;2.17;1.77;;;1.70;98.00;;;;;;5015020;28;20466;-63
2021/11/28 06:03:06;;;;;;;1.43;1.40;;;1.80;98.00;;;;;;5014941;28;20528;-63
2021/11/28 06:05:33;;;;;;;2.90;2.30;;;1.70;98.00;;;;;;5014728;28;20490;-63
2021/11/28 06:08:02;;;;;;;2.60;2.03;;;1.80;98.00;;;;;;5014653;28;20486;-63
2021/11/28 06:10:29;;;;;;;1.87;1.40;;;1.90;98.00;;;;;;5014477;28;20467;-64
2021/11/28 06:12:57;;;;;;;1.77;1.40;;;2.10;98.00;;;;;;5014236;28;20528;-62
2021/11/28 06:15:24;;;;;;;1.97;1.87;;;2.20;98.00;;;;;;5014603;28;20463;-63
2021/11/28 06:17:52;;;;;;;1.17;1.10;;;2.20;98.00;;;;;;5014220;28;20521;-63
2021/11/28 06:20:23;;;;;;;1.20;1.10;;;2.10;98.00;;;;;;5014473;28;20999;-62
2021/11/28 06:22:52;;;;;;;1.20;1.00;;;2.10;98.00;;;;;;5014679;28;20458;-63
2021/11/28 06:25:20;;;;;;;1.20;1.07;;;2.20;98.00;;;;;;5014353;28;20462;-63
2021/11/28 06:27:47;;;;;;;1.50;1.20;;;2.30;98.00;;;;;;5014240;28;20483;-63
2021/11/28 06:30:15;;;;;;;2.03;1.30;;;2.20;98.00;;;;;;5014070;28;20474;-63
2021/11/28 06:32:42;;;;;;;2.57;1.90;;;2.20;98.00;;;;;;5014271;28;20462;-63
2021/11/28 06:35:09;;;;;;;1.20;1.00;;;2.10;98.00;;;;;;5014145;28;20466;-63
2021/11/28 06:37:38;;;;;;;1.30;1.23;;;2.10;98.00;;;;;;5014305;28;20509;-63
2021/11/28 06:40:06;;;;;;;1.83;1.67;;;2.10;98.00;;;;;;5014126;28;20458;-63
2021/11/28 06:42:33;;;;;;;1.10;1.00;;;2.10;98.00;;;;;;5014353;28;20510;-62
2021/11/28 06:45:01;;;;;;;1.10;1.00;;;2.10;98.00;;;;;;5014028;28;20950;-63
2021/11/28 06:47:32;;;;;;;1.50;1.43;;;2.20;98.00;;;;;;5014158;28;20541;-62
2021/11/28 06:49:59;;;;;;;1.77;1.70;;;2.30;98.00;;;;;;5013963;28;21003;-62
2021/11/28 06:52:26;;;;;;;1.80;1.50;;;2.30;98.00;;;;;;5014007;28;20467;-63
2021/11/28 06:54:54;;;;;;;1.30;1.23;;;2.30;98.00;;;;;;5014127;28;20462;-63
2021/11/28 06:57:21;;;;;;;2.63;1.70;;;2.30;98.00;;;;;;5014008;28;20486;-63
2021/11/28 06:59:48;;;;;;;1.77;1.77;;;2.30;98.00;;;;;;5013830;28;20458;-63
2021/11/28 07:02:15;;;;;;;1.57;1.30;;;2.40;98.00;;;;;;5013692;28;20526;-63
2021/11/28 07:04:43;;;;;;;1.60;1.50;;;2.30;98.00;;;;;;5013721;28;20466;-63
2021/11/28 07:07:10;;;;;;;1.40;1.20;;;2.20;98.00;;;;;;5013712;28;20578;-63
2021/11/28 07:09:37;;;;;;;2.20;1.83;;;2.30;98.00;;;;;;5013906;28;20522;-63
2021/11/28 07:12:07;;;;;;;1.50;1.40;;;2.40;98.00;;;;;;5013488;28;20467;-62
2021/11/28 07:14:36;;;;;;;1.57;1.47;;;2.40;98.00;;;;;;5013965;28;20468;-62
2021/11/28 07:17:04;;;;;;;2.70;1.93;;;2.20;98.00;;;;;;5011929;28;20467;-63
2021/11/28 07:19:35;;;;;;;1.30;1.30;;;2.30;98.00;;;;;;5013746;28;20467;-63
2021/11/28 07:22:02;;;;;;;1.87;1.87;;;2.30;98.00;;;;;;5013612;28;20550;-63
2021/11/28 07:24:29;;;;;;;1.97;1.23;;;2.30;98.00;;;;;;5013702;28;20810;-63
2021/11/28 07:26:57;;;;;;;2.20;1.97;;;2.20;98.00;;;;;;5013293;28;20471;-63
2021/11/28 07:29:25;;;;;;;1.60;1.37;;;2.10;98.00;;;;;;5013607;28;20463;-63
2021/11/28 07:31:52;;;;;;;1.50;1.40;;;2.10;98.00;;;;;;5013232;28;20470;-63
2021/11/28 07:34:19;;;;;;;1.43;1.33;;;2.20;98.00;;;;;;5012180;28;20459;-63
2021/11/28 07:36:46;;;;;;;1.27;1.27;;;2.10;98.00;;;;;;5012634;28;20958;-63
2021/11/28 07:39:13;;;;;;;2.33;1.50;;;2.10;98.00;;;;;;5013020;28;20491;-63
2021/11/28 07:41:43;;;;;;;1.87;1.60;;;2.00;98.00;;;;;;5012953;28;20456;-63
2021/11/28 07:44:12;;;;;;;1.43;1.33;;;1.90;98.00;;;;;;5013165;28;20510;-63
2021/11/28 07:46:40;;;;;;;1.83;1.73;;;2.00;98.00;;;;;;5011636;28;20463;-62
2021/11/28 07:49:08;;;;;;;1.40;1.10;;;2.10;98.00;;;;;;5012645;28;20541;-62
2021/11/28 07:51:36;;;;;;;1.10;1.10;;;2.20;98.00;;;;;;5012981;28;20606;-63
2021/11/28 07:54:06;;;;;;;1.40;1.17;;;2.40;98.00;;;;;;5013082;28;21163;-62
2021/11/28 07:56:33;;;;;;;1.70;1.40;;;2.50;98.00;;;;;;5012730;28;20493;-62
2021/11/28 07:59:02;;;;;;;1.57;1.53;;;2.60;98.00;;;;;;5012723;28;21036;-63
2021/11/28 08:01:29;;;;;;;3.20;1.87;;;2.50;98.00;;;;;;5011107;28;20475;-62
2021/11/28 08:03:58;;;;;;;1.30;1.27;;;2.50;98.00;;;;;;5012767;28;20521;-63
2021/11/28 08:06:26;;;;;;;1.60;1.40;;;2.40;98.00;;;;;;5012701;28;20517;-63
2021/11/28 08:08:53;;;;;;;1.10;1.00;;;2.30;98.00;;;;;;5012589;28;20487;-62
2021/11/28 08:11:21;;;;;;;3.30;1.83;;;2.50;98.00;;;;;;5012937;28;20886;-62
2021/11/28 08:13:49;;;;;;;1.50;1.47;;;2.50;98.00;;;;;;5012718;28;20459;-62
2021/11/28 08:16:19;;;;;;;2.43;1.73;;;2.60;98.00;;;;;;5012496;28;20451;-63
2021/11/28 08:18:47;;;;;;;2.43;1.67;;;2.70;98.00;;;;;;5012590;28;20463;-63
2021/11/28 08:21:17;;;;;;;2.13;1.97;;;2.70;98.00;;;;;;5012360;28;20582;-63
2021/11/28 08:23:45;;;;;;;1.10;1.10;;;2.70;98.00;;;;;;5011177;28;20460;-63
2021/11/28 08:26:15;;;;;;;1.30;1.20;;;2.70;98.00;;;;;;5012427;28;20510;-63
2021/11/28 08:28:45;;;;;;;1.70;1.53;;;2.60;98.00;;;;;;5012597;28;20483;-63
2021/11/28 08:31:12;;;;;;;2.00;1.60;;;2.70;98.00;;;;;;5012297;28;20462;-63
2021/11/28 08:33:40;;;;;;;1.10;1.00;;;2.70;98.00;;;;;;5011300;28;20459;-63
2021/11/28 08:36:08;;;;;;;1.20;1.10;;;2.60;98.00;;;;;;5012529;28;20459;-62
2021/11/28 08:38:42;;;;;;;1.20;1.10;;;2.70;98.00;;;;;;5012438;28;20455;-63
2021/11/28 08:41:10;;;;;;;1.67;1.57;;;2.80;98.00;;;;;;5012229;28;20459;-63
2021/11/28 08:43:37;;;;;;;1.63;1.60;;;2.80;98.00;;;;;;5012120;28;20865;-63
2021/11/28 08:46:05;;;;;;;1.60;1.40;;;2.90;98.00;;;;;;5012118;28;20464;-63
2021/11/28 08:48:32;;;;;;;1.73;1.63;;;3.00;98.00;;;;;;5012105;28;20490;-63
2021/11/28 08:51:02;;;;;;;1.90;1.80;;;3.00;98.00;;;;;;5012024;28;20456;-63
2021/11/28 08:53:29;;;;;;;2.13;1.97;;;3.10;98.00;;;;;;5010819;28;20908;-63
2021/11/28 08:55:57;;;;;;;4.13;1.40;;;3.20;98.00;;;;;;5012069;28;20451;-62
2021/11/28 08:58:24;;;;;;;2.43;1.60;;;3.30;98.00;;;;;;5011754;28;20946;-63
2021/11/28 09:00:51;;;;;;;2.23;1.20;;;3.20;98.00;;;;;;5011699;28;20866;-63
2021/11/28 09:03:19;;;;;;;1.47;1.43;;;3.00;98.00;;;;;;5011962;28;20463;-63
2021/11/28 09:05:46;;;;;;;1.30;1.10;;;3.00;98.00;;;;;;5011878;28;20821;-63
2021/11/28 09:08:13;;;;;;;2.90;1.30;;;3.00;98.00;;;;;;5011624;28;20561;-63
2021/11/28 09:10:42;;;;;;;1.63;1.27;;;2.90;98.00;;;;;;5011974;28;20938;-62
2021/11/28 09:13:12;;;;;;;1.30;1.27;;;3.00;98.00;;;;;;5011510;28;20522;-63
2021/11/28 09:15:40;;;;;;;1.20;1.00;;;3.10;98.00;;;;;;5011823;28;20969;-63
2021/11/28 09:18:12;;;;;;;1.20;1.10;;;3.20;98.00;;;;;;5011741;28;20524;-63
2021/11/28 09:20:43;;;;;;;5.30;1.57;;;3.10;98.00;;;;;;5011907;28;20497;-63
2021/11/28 09:25:55;;;;;;;1.20;1.20;;;3.00;98.00;;;;;;5011685;28;20451;-62
2021/11/28 09:28:24;;;;;;;1.20;1.10;;;3.00;98.00;;;;;;5011757;28;20491;-62
2021/11/28 09:30:51;;;;;;;2.13;1.80;;;3.00;98.00;;;;;;5011578;28;20517;-63
2021/11/28 09:33:18;;;;;;;8.70;2.70;;;3.00;98.00;;;;;;5011673;28;20829;-62
2021/11/28 09:35:45;;;;;;;1.20;1.10;;;3.10;98.00;;;;;;5011797;28;20460;-62
2021/11/28 09:38:13;;;;;;;2.70;1.73;;;3.20;98.00;;;;;;5011373;28;20513;-62
2021/11/28 09:40:44;;;;;;;3.30;2.60;;;3.20;98.00;;;;;;5011678;28;20455;-62
2021/11/28 09:43:14;;;;;;;1.50;1.37;;;3.20;98.00;;;;;;5009627;28;20482;-62
2021/11/28 09:45:47;;;;;;;2.37;1.13;;;3.40;98.00;;;;;;5010451;28;20502;-62
2021/11/28 09:48:14;;;;;;;1.30;1.20;;;3.50;98.00;;;;;;5010368;28;20525;-63
2021/11/28 09:50:41;;;;;;;1.40;1.40;;;3.40;98.00;;;;;;5011602;28;20463;-63
2021/11/28 09:53:12;;;;;;;1.80;1.70;;;3.40;98.00;;;;;;5011563;28;20452;-63
2021/11/28 09:55:41;;;;;;;1.53;1.43;;;3.40;98.00;;;;;;5011730;28;20557;-62
2021/11/28 09:58:09;;;;;;;1.63;1.43;;;3.50;98.00;;;;;;5011453;28;20533;-62
2021/11/28 10:00:37;;;;;;;3.17;2.03;;;3.60;98.00;;;;;;5012852;28;20459;-62
2021/11/28 10:03:05;;;;;;;5.57;2.60;;;3.60;98.00;;;;;;5015148;28;20862;-62
2021/11/28 10:05:32;;;;;;;1.20;1.20;;;3.60;98.00;;;;;;5015228;28;20555;-62
2021/11/28 10:08:01;;;;;;;4.40;2.23;;;3.50;98.00;;;;;;5015007;28;20487;-62
2021/11/28 10:10:28;;;;;;;5.43;3.00;;;3.60;98.00;;;;;;5014657;28;20459;-62
2021/11/28 10:12:56;;;;;;;2.30;1.47;;;3.70;98.00;;;;;;5014733;28;20514;-62
2021/11/28 10:15:25;;;;;;;3.43;1.73;;;3.70;98.00;;;;;;5014679;28;20804;-62
2021/11/28 10:17:52;;;;;;;1.73;1.63;;;3.60;98.00;;;;;;5014739;28;20807;-62
2021/11/28 10:20:26;;;;;;;4.70;2.40;;;3.60;98.00;;;;;;5014417;28;20804;-62
2021/11/28 10:22:54;;;;;;;1.33;1.20;;;3.60;98.00;;;;;;5014425;28;20459;-63
2021/11/28 10:25:25;;;;;;;2.03;1.30;;;3.60;98.00;;;;;;5014594;28;20463;-62
2021/11/28 10:27:55;;;;;;;2.33;1.30;;;3.60;98.00;;;;;;5014376;28;20468;-62
2021/11/28 10:30:35;;;;;;;1.43;1.40;;;3.50;98.00;;;;;;5014266;28;20950;-62
2021/11/28 10:33:09;;;;;;;4.27;1.83;;;3.40;98.00;;;;;;5012927;28;20461;-63
2021/11/28 10:36:03;;;;;;;1.83;1.40;;;3.40;98.00;;;;;;5010726;28;20459;-62
2021/11/28 10:38:34;;;;;;;3.00;1.90;;;3.50;98.00;;;;;;5012937;28;20486;-63
2021/11/28 10:41:01;;;;;;;3.30;2.00;;;3.60;98.00;;;;;;5014483;28;20545;-63
2021/11/28 10:43:40;;;;;;;2.37;2.17;;;3.70;98.00;;;;;;5014118;28;20869;-63
2021/11/28 10:46:23;;;;;;;2.50;1.60;;;3.90;98.00;;;;;;5013676;28;20965;-63
2021/11/28 10:49:03;;;;;;;1.20;1.00;;;3.80;98.00;;;;;;5013983;28;20491;-62
2021/11/28 10:51:33;;;;;;;4.70;1.90;;;3.80;98.00;;;;;;5014265;28;20858;-62
2021/11/28 10:54:00;;;;;;;2.90;2.53;;;3.80;98.00;;;;;;5013924;28;20462;-63
2021/11/28 10:56:27;;;;;;;2.57;1.43;;;3.90;98.00;;;;;;5014118;28;21011;-62
2021/11/28 10:59:18;;;;;;;1.67;1.63;;;3.90;98.00;;;;;;5012771;28;20495;-62
2021/11/28 11:01:45;;;;;;;2.23;1.77;;;3.80;98.00;;;;;;5013759;28;20938;-63
2021/11/28 11:04:19;;;;;;;1.73;1.63;;;3.90;98.00;;;;;;5013675;28;20461;-62
2021/11/28 11:07:07;;;;;;;2.27;1.63;;;4.00;98.00;;;;;;5013745;28;20455;-62
2021/11/28 11:09:40;;;;;;;1.70;1.40;;;3.90;98.00;;;;;;5013854;28;20545;-62
2021/11/28 11:12:24;;;;;;;1.60;1.50;;;4.00;98.00;;;;;;5012837;28;20455;-62
2021/11/28 11:14:52;;;;;;;1.47;1.37;;;4.00;98.00;;;;;;5012397;28;20550;-62
2021/11/28 11:17:20;;;;;;;1.50;1.40;;;4.00;98.00;;;;;;5013920;28;20483;-63
2021/11/28 11:19:48;;;;;;;5.10;1.70;;;4.10;98.00;;;;;;5013552;28;20476;-63
2021/11/28 11:22:21;;;;;;;3.93;2.13;;;4.10;98.00;;;;;;5013148;28;20494;-62
2021/11/28 11:24:52;;;;;;;2.53;1.33;;;4.20;98.00;;;;;;5013056;28;20813;-63
2021/11/28 11:27:23;;;;;;;1.20;1.20;;;4.20;98.00;;;;;;5012997;28;20503;-62
2021/11/28 11:29:53;;;;;;;2.87;1.90;;;4.30;98.00;;;;;;5013206;28;20488;-63
2021/11/28 11:32:23;;;;;;;1.43;1.20;;;4.30;98.00;;;;;;5013132;28;20476;-63
2021/11/28 11:34:56;;;;;;;4.50;1.93;;;4.40;98.00;;;;;;5013030;28;20455;-63
2021/11/28 11:37:26;;;;;;;1.77;1.50;;;4.30;98.00;;;;;;5012105;28;20460;-63
2021/11/28 11:39:56;;;;;;;1.67;1.47;;;4.20;98.00;;;;;;5013117;28;20469;-62
2021/11/28 11:42:28;;;;;;;1.70;1.30;;;4.30;98.00;;;;;;5013081;28;20461;-62
2021/11/28 11:44:57;;;;;;;1.30;1.30;;;4.30;98.00;;;;;;5012617;28;20494;-63
2021/11/28 11:47:24;;;;;;;1.50;1.40;;;4.50;98.00;;;;;;5013169;28;20510;-63
2021/11/28 11:49:54;;;;;;;1.30;1.30;;;4.50;98.00;;;;;;5012705;28;20493;-63
2021/11/28 11:52:24;;;;;;;2.03;1.83;;;4.60;98.00;;;;;;5012905;28;20464;-63
2021/11/28 11:54:53;;;;;;;1.97;1.50;;;4.70;98.00;;;;;;5012774;28;20464;-63
2021/11/28 11:57:27;;;;;;;2.03;1.90;;;4.50;98.00;;;;;;5012936;28;20455;-63
2021/11/28 12:00:12;;;;;;;2.70;2.50;;;4.70;98.00;;;;;;5011481;28;20463;-62
2021/11/28 12:02:41;;;;;;;2.33;2.10;;;4.80;98.00;;;;;;5012841;28;20469;-63
2021/11/28 12:05:36;;;;;;;2.40;2.13;;;4.70;98.00;;;;;;5012520;28;20451;-63
2021/11/28 12:08:09;;;;;;;3.20;3.00;;;4.80;98.00;;;;;;5012686;28;20560;-62
2021/11/28 12:10:39;;;;;;;3.00;1.30;;;4.70;98.00;;;;;;5012361;28;20485;-63
2021/11/28 12:13:09;;;;;;;2.27;1.83;;;4.80;98.00;;;;;;5012428;28;20456;-63
2021/11/28 12:15:38;;;;;;;1.30;1.20;;;4.90;98.00;;;;;;5011502;28;20463;-63
2021/11/28 12:18:08;;;;;;;2.27;1.90;;;4.90;98.00;;;;;;5012452;28;21145;-62
2021/11/28 12:20:57;;;;;;;1.20;1.20;;;5.00;98.00;;;;;;5012454;28;20459;-63
2021/11/28 12:24:05;;;;;;;2.50;1.80;;;4.90;98.00;;;;;;5012428;28;20488;-62
2021/11/28 12:26:47;;;;;;;3.07;1.40;;;4.80;98.00;;;;;;5011684;28;20460;-63
2021/11/28 12:29:46;;;;;;;1.20;1.20;;;4.60;98.00;;;;;;5012426;28;20961;-63
2021/11/28 12:32:28;;;;;;;1.30;1.23;;;4.60;98.00;;;;;;5012440;28;20452;-63
2021/11/28 12:35:13;;;;;;;1.33;1.20;;;4.50;98.00;;;;;;5012429;28;20495;-63
2021/11/28 12:37:49;;;;;;;1.50;1.47;;;4.50;98.00;;;;;;5012540;28;20455;-63
2021/11/28 12:40:30;;;;;;;1.93;1.50;;;4.40;98.00;;;;;;5012297;28;20953;-63
2021/11/28 12:43:13;;;;;;;2.43;1.20;;;4.20;98.00;;;;;;5012400;28;20517;-63
2021/11/28 12:45:40;;;;;;;1.60;1.57;;;4.20;98.00;;;;;;5012224;28;20510;-64
2021/11/28 12:48:11;;;;;;;2.10;1.60;;;4.00;98.00;;;;;;5012178;28;20792;-63
2021/11/28 12:50:56;;;;;;;1.20;1.10;;;3.90;98.00;;;;;;5012053;28;20483;-63
2021/11/28 12:53:29;;;;;;;1.20;1.10;;;3.90;98.00;;;;;;5012156;28;20464;-63
2021/11/28 12:56:22;;;;;;;1.73;1.53;;;3.90;98.00;;;;;;5012215;28;20956;-63
2021/11/28 12:59:15;;;;;;;2.33;1.97;;;3.80;98.00;;;;;;5005293;28;20509;-64
2021/11/28 13:01:50;;;;;;;1.30;1.30;;;3.80;98.00;;;;;;5011678;28;21039;-63
2021/11/28 13:04:49;;;;;;;1.30;1.30;;;4.00;98.00;;;;;;5011826;28;20808;-63
2021/11/28 13:07:37;;;;;;;1.53;1.20;;;3.90;98.00;;;;;;5011755;28;20559;-63
2021/11/28 13:10:27;;;;;;;1.20;1.20;;;3.90;98.00;;;;;;5011637;28;20495;-64
2021/11/28 13:12:57;;;;;;;1.27;1.23;;;4.00;98.00;;;;;;5011736;28;20460;-63
2021/11/28 13:15:28;;;;;;;1.20;1.10;;;4.10;98.00;;;;;;5011637;28;20905;-64
2021/11/28 13:17:56;;;;;;;2.53;2.17;;;4.30;98.00;;;;;;5011600;28;20506;-63